Time;durP1;ratioP1;P1;durP2;ratioP2;P2;SDS_P1;SDS_P2;PMS_P1;PMS_P2;Temp;Humidity;BMP_temperature;BMP_pressure;BME280_temperature;BME280_humidity;BME280_pressure;Samples;Min_cycle;Max_cycle;Signal;HPM_P1;HPM_P2
2024/01/30 00:02:16;;;;;;;;;;;6.40;99.90;;;;;;5035827;28;19917;-77
2024/01/30 00:05:03;;;;;;;;;;;6.30;99.90;;;;;;5011362;28;20515;-77
2024/01/30 00:07:50;;;;;;;;;;;6.40;99.90;;;;;;5006076;28;19925;-77
2024/01/30 00:10:36;;;;;;;;;;;6.40;99.90;;;;;;5006348;28;20052;-77
2024/01/30 00:13:22;;;;;;;;;;;6.40;99.90;;;;;;4999697;28;19922;-76
2024/01/30 00:16:09;;;;;;;;;;;6.40;99.90;;;;;;4995253;28;19975;-77
2024/01/30 00:18:54;;;;;;;;;;;6.40;99.90;;;;;;5001436;28;19928;-77
2024/01/30 00:21:41;;;;;;;;;;;6.50;99.90;;;;;;4999799;28;19913;-76
2024/01/30 00:24:26;;;;;;;;;;;6.40;99.90;;;;;;5005537;28;19947;-77
2024/01/30 00:27:12;;;;;;;;;;;6.50;99.90;;;;;;5019566;28;19917;-77
2024/01/30 00:29:58;;;;;;;;;;;6.50;99.90;;;;;;5012908;28;20374;-77
2024/01/30 00:32:44;;;;;;;;;;;6.50;99.90;;;;;;5018784;28;20008;-77
2024/01/30 00:35:30;;;;;;;;;;;6.50;99.90;;;;;;5010119;28;19944;-77
2024/01/30 00:38:16;;;;;;;;;;;6.50;99.90;;;;;;4998338;28;19921;-76
2024/01/30 00:41:03;;;;;;;;;;;6.50;99.90;;;;;;4991756;28;20004;-77
2024/01/30 00:43:49;;;;;;;;;;;6.60;99.90;;;;;;4995798;28;20290;-77
2024/01/30 00:46:35;;;;;;;;;;;6.60;99.90;;;;;;5017954;28;19924;-77
2024/01/30 00:49:21;;;;;;;;;;;6.60;99.90;;;;;;4991309;28;19921;-76
2024/01/30 00:52:06;;;;;;;;;;;6.60;99.90;;;;;;5005038;28;19922;-76
2024/01/30 00:54:52;;;;;;;;;;;6.60;99.90;;;;;;5028250;28;19917;-76
2024/01/30 00:57:38;;;;;;;;;;;6.50;99.90;;;;;;5008914;28;19917;-76
2024/01/30 01:00:28;;;;;;;;;;;6.60;99.90;;;;;;5004050;28;20090;-76
2024/01/30 01:03:14;;;;;;;;;;;6.60;99.90;;;;;;5026675;28;19976;-77
2024/01/30 01:06:00;;;;;;;;;;;6.50;99.90;;;;;;4998363;28;19925;-77
2024/01/30 01:08:46;;;;;;;;;;;6.50;99.90;;;;;;5016976;28;20310;-77
2024/01/30 01:11:32;;;;;;;;;;;6.50;99.90;;;;;;5042786;28;19924;-77
2024/01/30 01:14:18;;;;;;;;;;;6.50;99.90;;;;;;5041726;28;19931;-77
2024/01/30 01:17:04;;;;;;;;;;;6.50;99.90;;;;;;5027434;28;20032;-77
2024/01/30 01:19:49;;;;;;;;;;;6.50;99.90;;;;;;5024840;28;20325;-77
2024/01/30 01:22:35;;;;;;;;;;;6.60;99.90;;;;;;5025459;28;19917;-78
2024/01/30 01:25:21;;;;;;;;;;;6.50;99.90;;;;;;5023081;28;19944;-77
2024/01/30 01:28:07;;;;;;;;;;;6.50;99.90;;;;;;5038547;28;19923;-77
2024/01/30 01:30:53;;;;;;;;;;;6.60;99.90;;;;;;5027418;28;19916;-77
2024/01/30 01:33:39;;;;;;;;;;;6.60;99.90;;;;;;5028605;28;19943;-77
2024/01/30 01:36:25;;;;;;;;;;;6.60;99.90;;;;;;5050136;28;19928;-77
2024/01/30 01:39:11;;;;;;;;;;;6.60;99.90;;;;;;5019137;28;20238;-77
2024/01/30 01:41:56;;;;;;;;;;;6.50;99.90;;;;;;5028753;28;19923;-77
2024/01/30 01:44:42;;;;;;;;;;;6.50;99.90;;;;;;5054054;28;19970;-77
2024/01/30 01:47:28;;;;;;;;;;;6.50;99.90;;;;;;5028675;28;20301;-77
2024/01/30 01:50:15;;;;;;;;;;;6.50;99.90;;;;;;5022833;28;19917;-76
2024/01/30 01:53:01;;;;;;;;;;;6.50;99.90;;;;;;5029082;28;19916;-76
2024/01/30 01:55:47;;;;;;;;;;;6.50;99.90;;;;;;5011624;28;19932;-77
2024/01/30 01:58:33;;;;;;;;;;;6.50;99.90;;;;;;5042505;28;19913;-77
2024/01/30 02:01:18;;;;;;;;;;;6.40;99.90;;;;;;5042382;28;20383;-77
2024/01/30 02:04:04;;;;;;;;;;;6.40;99.90;;;;;;5024040;28;19917;-77
2024/01/30 02:06:51;;;;;;;;;;;6.30;99.90;;;;;;5020588;28;19932;-77
2024/01/30 02:09:37;;;;;;;;;;;6.20;99.90;;;;;;5034999;28;20417;-77
2024/01/30 02:12:23;;;;;;;;;;;6.20;99.90;;;;;;5022931;28;20075;-77
2024/01/30 02:15:08;;;;;;;;;;;6.20;99.90;;;;;;5036188;28;20000;-77
2024/01/30 02:17:54;;;;;;;;;;;6.00;99.90;;;;;;5017140;28;20773;-77
2024/01/30 02:20:40;;;;;;;;;;;6.00;99.90;;;;;;5002942;28;20611;-77
2024/01/30 02:23:26;;;;;;;;;;;6.00;99.90;;;;;;5017433;28;19957;-76
2024/01/30 02:26:12;;;;;;;;;;;6.00;99.90;;;;;;4994709;28;19948;-76
2024/01/30 02:28:58;;;;;;;;;;;6.10;99.90;;;;;;5034854;28;19921;-76
2024/01/30 02:31:45;;;;;;;;;;;6.10;99.90;;;;;;5030179;28;19917;-76
2024/01/30 02:34:31;;;;;;;;;;;6.20;99.90;;;;;;5035054;28;19983;-76
2024/01/30 02:37:17;;;;;;;;;;;6.10;99.90;;;;;;5028238;28;19913;-76
2024/01/30 02:40:03;;;;;;;;;;;6.10;99.90;;;;;;5028334;28;19920;-76
2024/01/30 02:42:49;;;;;;;;;;;6.10;99.90;;;;;;5021924;28;20406;-76
2024/01/30 02:45:35;;;;;;;;;;;6.10;99.90;;;;;;5007701;28;19924;-76
2024/01/30 02:48:21;;;;;;;;;;;6.10;99.90;;;;;;5019714;28;20246;-76
2024/01/30 02:51:07;;;;;;;;;;;6.10;99.90;;;;;;4992732;28;20222;-76
2024/01/30 02:53:53;;;;;;;;;;;6.10;99.90;;;;;;5008153;28;20649;-76
2024/01/30 02:56:39;;;;;;;;;;;6.10;99.90;;;;;;5006321;28;20044;-77
2024/01/30 02:59:25;;;;;;;;;;;6.10;99.90;;;;;;4999814;28;19972;-77
2024/01/30 03:02:11;;;;;;;;;;;6.00;99.90;;;;;;5014398;28;19928;-77
2024/01/30 03:04:57;;;;;;;;;;;6.00;99.90;;;;;;5017189;28;20294;-77
2024/01/30 03:07:42;;;;;;;;;;;6.00;99.90;;;;;;5019007;28;20354;-77
2024/01/30 03:10:28;;;;;;;;;;;6.00;99.90;;;;;;5008690;28;20000;-77
2024/01/30 03:13:14;;;;;;;;;;;5.90;99.90;;;;;;5035459;28;19979;-76
2024/01/30 03:16:00;;;;;;;;;;;5.90;99.90;;;;;;5026535;28;19912;-76
2024/01/30 03:18:46;;;;;;;;;;;5.80;99.90;;;;;;5037760;28;19928;-76
2024/01/30 03:21:32;;;;;;;;;;;5.80;99.90;;;;;;5027285;28;19924;-76
2024/01/30 03:24:18;;;;;;;;;;;5.80;99.90;;;;;;5033492;28;19921;-76
2024/01/30 03:27:04;;;;;;;;;;;5.80;99.90;;;;;;5054801;28;19971;-76
2024/01/30 03:29:51;;;;;;;;;;;5.80;99.90;;;;;;5027091;28;19916;-77
2024/01/30 03:32:37;;;;;;;;;;;5.80;99.90;;;;;;5035488;28;20046;-76
2024/01/30 03:35:23;;;;;;;;;;;5.70;99.90;;;;;;5025994;28;19961;-76
2024/01/30 03:38:09;;;;;;;;;;;5.70;99.90;;;;;;5039638;28;19913;-76
2024/01/30 03:40:55;;;;;;;;;;;5.80;99.90;;;;;;5026433;28;20023;-77
2024/01/30 03:43:41;;;;;;;;;;;5.80;99.90;;;;;;5026566;28;20011;-76
2024/01/30 03:46:27;;;;;;;;;;;5.80;99.90;;;;;;5038280;28;19920;-76
2024/01/30 03:49:12;;;;;;;;;;;5.90;99.90;;;;;;5039186;28;19916;-76
2024/01/30 03:51:58;;;;;;;;;;;5.90;99.90;;;;;;5026165;28;20398;-76
2024/01/30 03:54:44;;;;;;;;;;;5.90;99.90;;;;;;5041126;28;19917;-78
2024/01/30 03:57:30;;;;;;;;;;;5.90;99.90;;;;;;5026619;28;20569;-77
2024/01/30 04:00:16;;;;;;;;;;;5.90;99.90;;;;;;5043743;28;19975;-77
2024/01/30 04:03:05;;;;;;;;;;;5.90;99.90;;;;;;5032293;28;19913;-77
2024/01/30 04:05:51;;;;;;;;;;;5.90;99.90;;;;;;5040429;28;19920;-77
2024/01/30 04:08:37;;;;;;;;;;;5.90;99.90;;;;;;5040431;28;19966;-77
2024/01/30 04:11:23;;;;;;;;;;;5.90;99.90;;;;;;5025613;28;19916;-77
2024/01/30 04:14:09;;;;;;;;;;;6.00;99.90;;;;;;5040396;28;20237;-77
2024/01/30 04:16:55;;;;;;;;;;;6.00;99.90;;;;;;5038874;28;19917;-76
2024/01/30 04:19:40;;;;;;;;;;;6.00;99.90;;;;;;5038477;28;20034;-76
2024/01/30 04:22:26;;;;;;;;;;;6.10;99.90;;;;;;5024705;28;19917;-76
2024/01/30 04:25:13;;;;;;;;;;;6.10;99.90;;;;;;5021482;28;19975;-76
2024/01/30 04:27:58;;;;;;;;;;;6.20;99.90;;;;;;5022758;28;19927;-76
2024/01/30 04:30:44;;;;;;;;;;;6.20;99.90;;;;;;5020312;28;19917;-76
2024/01/30 04:33:30;;;;;;;;;;;6.20;99.90;;;;;;5019173;28;19917;-76
2024/01/30 04:36:16;;;;;;;;;;;6.20;99.90;;;;;;5020779;28;19986;-76
2024/01/30 04:39:03;;;;;;;;;;;6.20;99.90;;;;;;5018226;28;19924;-76
2024/01/30 04:41:49;;;;;;;;;;;6.30;99.90;;;;;;5014232;28;19917;-76
2024/01/30 04:44:35;;;;;;;;;;;6.30;99.90;;;;;;5020258;28;19924;-76
2024/01/30 04:47:21;;;;;;;;;;;6.30;99.90;;;;;;5025331;28;19913;-76
2024/01/30 04:50:07;;;;;;;;;;;6.30;99.90;;;;;;5026624;28;19931;-76
2024/01/30 04:52:53;;;;;;;;;;;6.30;99.90;;;;;;5038113;28;19917;-76
2024/01/30 04:55:38;;;;;;;;;;;6.20;99.90;;;;;;5005796;28;20075;-76
2024/01/30 04:58:24;;;;;;;;;;;6.30;99.90;;;;;;5050035;28;19927;-76
2024/01/30 05:01:14;;;;;;;;;;;6.20;99.90;;;;;;5030661;28;19913;-76
2024/01/30 05:04:00;;;;;;;;;;;6.30;99.90;;;;;;5023780;28;19912;-76
2024/01/30 05:06:46;;;;;;;;;;;6.30;99.90;;;;;;5039288;28;20011;-76
2024/01/30 05:09:32;;;;;;;;;;;6.30;99.90;;;;;;5036054;28;20003;-76
2024/01/30 05:12:18;;;;;;;;;;;6.20;99.90;;;;;;5039688;28;19917;-76
2024/01/30 05:15:04;;;;;;;;;;;6.20;99.90;;;;;;5016339;28;19928;-76
2024/01/30 05:17:50;;;;;;;;;;;6.20;99.90;;;;;;5053859;28;19916;-76
2024/01/30 05:20:36;;;;;;;;;;;6.20;99.90;;;;;;5026375;28;19924;-76
2024/01/30 05:23:22;;;;;;;;;;;6.10;99.90;;;;;;5020733;28;20343;-76
2024/01/30 05:26:08;;;;;;;;;;;6.10;99.90;;;;;;5038991;28;19916;-75
2024/01/30 05:28:54;;;;;;;;;;;6.10;99.90;;;;;;5031372;28;19921;-76
2024/01/30 05:31:39;;;;;;;;;;;6.10;99.90;;;;;;5032643;28;19913;-76
2024/01/30 05:34:25;;;;;;;;;;;6.10;99.90;;;;;;5031869;28;19913;-76
2024/01/30 05:37:14;;;;;;;;;;;6.10;99.90;;;;;;5018505;28;20695;-76
2024/01/30 05:40:00;;;;;;;;;;;6.10;99.90;;;;;;5017966;28;19917;-77
2024/01/30 05:42:46;;;;;;;;;;;6.20;99.90;;;;;;5017958;28;20352;-76
2024/01/30 05:45:35;;;;;;;;;;;6.20;99.90;;;;;;5013650;28;20322;-77
2024/01/30 05:48:20;;;;;;;;;;;6.20;99.90;;;;;;5019701;28;19920;-76
2024/01/30 05:51:07;;;;;;;;;;;6.20;99.90;;;;;;5034154;28;19928;-76
2024/01/30 05:53:54;;;;;;;;;;;6.20;99.90;;;;;;5047079;28;19918;-76
2024/01/30 05:56:39;;;;;;;;;;;6.10;99.90;;;;;;5054430;28;19917;-77
2024/01/30 05:59:28;;;;;;;;;;;6.10;99.90;;;;;;5039300;28;19927;-76
2024/01/30 06:02:14;;;;;;;;;;;6.10;99.90;;;;;;5013754;28;19913;-76
2024/01/30 06:05:00;;;;;;;;;;;6.10;99.90;;;;;;5033469;28;19923;-76
2024/01/30 06:07:46;;;;;;;;;;;6.10;99.90;;;;;;5024874;28;19929;-76
2024/01/30 06:10:34;;;;;;;;;;;6.10;99.90;;;;;;5055145;28;20498;-75
2024/01/30 06:13:21;;;;;;;;;;;6.10;99.90;;;;;;5050912;28;19920;-76
2024/01/30 06:16:11;;;;;;;;;;;6.00;99.90;;;;;;5032443;28;19921;-75
2024/01/30 06:18:57;;;;;;;;;;;6.00;99.90;;;;;;5012293;28;19917;-76
2024/01/30 06:21:43;;;;;;;;;;;6.00;99.90;;;;;;5011702;28;20368;-77
2024/01/30 06:24:29;;;;;;;;;;;6.00;99.90;;;;;;5019654;28;19917;-75
2024/01/30 06:27:15;;;;;;;;;;;6.10;99.90;;;;;;5017367;28;20610;-76
2024/01/30 06:30:01;;;;;;;;;;;6.00;99.90;;;;;;5031648;28;19917;-77
2024/01/30 06:32:47;;;;;;;;;;;6.00;99.90;;;;;;5021258;28;19925;-76
2024/01/30 06:35:33;;;;;;;;;;;6.00;99.90;;;;;;5036204;28;19988;-76
2024/01/30 06:38:18;;;;;;;;;;;6.00;99.90;;;;;;5021038;28;19917;-76
2024/01/30 06:41:04;;;;;;;;;;;6.00;99.90;;;;;;5022224;28;20000;-76
2024/01/30 06:43:50;;;;;;;;;;;5.90;99.90;;;;;;5010655;28;20223;-76
2024/01/30 06:46:37;;;;;;;;;;;5.90;99.90;;;;;;5050749;28;19912;-77
2024/01/30 06:49:22;;;;;;;;;;;5.80;99.90;;;;;;5026832;28;19921;-76
2024/01/30 06:52:08;;;;;;;;;;;5.80;99.90;;;;;;5039964;28;19917;-76
2024/01/30 06:54:54;;;;;;;;;;;5.80;99.90;;;;;;5051313;28;19963;-76
2024/01/30 06:57:40;;;;;;;;;;;5.80;99.90;;;;;;5035630;28;20607;-75
2024/01/30 07:00:26;;;;;;;;;;;5.80;99.90;;;;;;5021388;28;20452;-75
2024/01/30 07:03:12;;;;;;;;;;;5.80;99.90;;;;;;5009425;28;19913;-75
2024/01/30 07:05:58;;;;;;;;;;;5.80;99.90;;;;;;5030740;28;20423;-76
2024/01/30 07:08:44;;;;;;;;;;;5.70;99.90;;;;;;5034911;28;19988;-76
2024/01/30 07:11:30;;;;;;;;;;;5.70;99.90;;;;;;5017152;28;20036;-76
2024/01/30 07:14:15;;;;;;;;;;;5.70;99.90;;;;;;5027344;28;19917;-76
2024/01/30 07:17:01;;;;;;;;;;;5.60;99.90;;;;;;5020120;28;19917;-76
2024/01/30 07:19:47;;;;;;;;;;;5.60;99.90;;;;;;5015727;28;20641;-76
2024/01/30 07:22:33;;;;;;;;;;;5.60;99.90;;;;;;5012523;28;20002;-75
2024/01/30 07:25:19;;;;;;;;;;;5.60;99.90;;;;;;5026806;28;20448;-75
2024/01/30 07:28:05;;;;;;;;;;;5.60;99.90;;;;;;5026626;28;19920;-75
2024/01/30 07:30:51;;;;;;;;;;;5.70;99.90;;;;;;5026203;28;19953;-75
2024/01/30 07:33:37;;;;;;;;;;;5.60;99.90;;;;;;5039524;28;20543;-76
2024/01/30 07:36:24;;;;;;;;;;;5.70;99.90;;;;;;5025091;28;19923;-76
2024/01/30 07:39:17;;;;;;;;;;;5.70;99.90;;;;;;5040489;28;19913;-76
2024/01/30 07:42:03;;;;;;;;;;;5.80;99.90;;;;;;5027264;28;19917;-76
2024/01/30 07:44:49;;;;;;;;;;;5.80;99.90;;;;;;5021597;28;19913;-76
2024/01/30 07:47:35;;;;;;;;;;;5.80;99.90;;;;;;5037799;28;20487;-76
2024/01/30 07:50:21;;;;;;;;;;;5.80;99.90;;;;;;5039829;28;19960;-76
2024/01/30 07:53:07;;;;;;;;;;;5.80;99.90;;;;;;5020533;28;19961;-76
2024/01/30 07:55:52;;;;;;;;;;;5.80;99.90;;;;;;5034732;28;19912;-77
2024/01/30 07:58:38;;;;;;;;;;;5.80;99.90;;;;;;5048097;28;19913;-76
2024/01/30 08:01:24;;;;;;;;;;;5.80;99.90;;;;;;5045625;28;19924;-76
2024/01/30 08:04:10;;;;;;;;;;;5.80;99.90;;;;;;5029785;28;19921;-76
2024/01/30 08:06:56;;;;;;;;;;;5.70;99.90;;;;;;5018712;28;20020;-76
2024/01/30 08:09:42;;;;;;;;;;;5.70;99.90;;;;;;5033088;28;20003;-76
2024/01/30 08:12:28;;;;;;;;;;;5.70;99.90;;;;;;5040251;28;20296;-76
2024/01/30 08:15:14;;;;;;;;;;;5.70;99.90;;;;;;5011359;28;20356;-76
2024/01/30 08:18:00;;;;;;;;;;;5.70;99.90;;;;;;5008590;28;19980;-77
2024/01/30 08:20:46;;;;;;;;;;;5.80;99.90;;;;;;5030505;28;20230;-76
2024/01/30 08:23:32;;;;;;;;;;;5.80;99.90;;;;;;5007306;28;19974;-76
2024/01/30 08:26:18;;;;;;;;;;;5.80;99.90;;;;;;5018677;28;19913;-77
2024/01/30 08:29:04;;;;;;;;;;;5.90;99.90;;;;;;5031853;28;19917;-76
2024/01/30 08:31:50;;;;;;;;;;;5.90;99.90;;;;;;5047836;28;19917;-76
2024/01/30 08:34:35;;;;;;;;;;;5.90;99.90;;;;;;5033143;28;19924;-77
2024/01/30 08:37:21;;;;;;;;;;;6.00;99.90;;;;;;5022638;28;19956;-76
2024/01/30 08:40:08;;;;;;;;;;;6.00;99.90;;;;;;5023773;28;20380;-76
2024/01/30 08:42:55;;;;;;;;;;;6.00;99.90;;;;;;5019919;28;20330;-76
2024/01/30 08:45:42;;;;;;;;;;;6.10;99.90;;;;;;5014342;28;20364;-76
2024/01/30 08:48:27;;;;;;;;;;;6.10;99.90;;;;;;5013450;28;19932;-76
2024/01/30 08:51:15;;;;;;;;;;;6.20;99.90;;;;;;5018491;28;20028;-75
2024/01/30 08:54:01;;;;;;;;;;;6.30;99.90;;;;;;5027489;28;20692;-76
2024/01/30 08:56:47;;;;;;;;;;;6.30;99.90;;;;;;5019448;28;19944;-75
2024/01/30 08:59:33;;;;;;;;;;;6.40;99.90;;;;;;5024282;28;19960;-78
2024/01/30 09:02:19;;;;;;;;;;;6.40;99.90;;;;;;5043332;28;20341;-76
2024/01/30 09:05:05;;;;;;;;;;;6.50;99.90;;;;;;5012123;28;19916;-78
2024/01/30 09:07:51;;;;;;;;;;;6.60;99.90;;;;;;5013116;28;19980;-78
2024/01/30 09:10:37;;;;;;;;;;;6.70;99.90;;;;;;5008574;28;19920;-78
2024/01/30 09:13:26;;;;;;;;;;;6.70;99.90;;;;;;5013055;28;20658;-78
2024/01/30 09:16:12;;;;;;;;;;;6.80;99.90;;;;;;5013569;28;20218;-78
2024/01/30 09:18:58;;;;;;;;;;;6.90;99.90;;;;;;5028761;28;20285;-78
2024/01/30 09:21:44;;;;;;;;;;;7.00;99.90;;;;;;5033137;28;20015;-78
2024/01/30 09:24:29;;;;;;;;;;;7.00;99.90;;;;;;5017594;28;20230;-78
2024/01/30 09:27:15;;;;;;;;;;;7.10;99.90;;;;;;5037850;28;19917;-78
2024/01/30 09:30:01;;;;;;;;;;;7.20;99.90;;;;;;5022004;28;19928;-77
2024/01/30 09:32:47;;;;;;;;;;;7.30;99.90;;;;;;5016171;28;19983;-78
2024/01/30 09:35:33;;;;;;;;;;;7.30;99.90;;;;;;5030515;28;20000;-78
2024/01/30 09:38:19;;;;;;;;;;;7.40;99.90;;;;;;5022689;28;19955;-78
2024/01/30 09:41:08;;;;;;;;;;;7.40;99.90;;;;;;5025932;28;20306;-77
2024/01/30 09:43:53;;;;;;;;;;;7.50;99.90;;;;;;5021022;28;19913;-78
2024/01/30 09:46:40;;;;;;;;;;;7.50;99.90;;;;;;5017358;28;19972;-78
2024/01/30 09:49:27;;;;;;;;;;;7.60;99.90;;;;;;5016905;28;19921;-78
2024/01/30 09:52:13;;;;;;;;;;;7.60;99.90;;;;;;5025027;28;19960;-78
2024/01/30 09:54:59;;;;;;;;;;;7.70;99.90;;;;;;5037376;28;19927;-78
2024/01/30 09:57:45;;;;;;;;;;;7.90;99.90;;;;;;5006766;28;19924;-78
2024/01/30 10:00:32;;;;;;;;;;;8.00;99.90;;;;;;5024631;28;19943;-77
2024/01/30 10:03:19;;;;;;;;;;;8.10;99.90;;;;;;5018277;28;20556;-78
2024/01/30 10:06:06;;;;;;;;;;;8.10;99.90;;;;;;5016812;28;19976;-78
2024/01/30 10:08:51;;;;;;;;;;;8.30;99.90;;;;;;5017890;28;19925;-78
2024/01/30 10:11:37;;;;;;;;;;;8.50;99.90;;;;;;5021205;28;19921;-78
2024/01/30 10:14:23;;;;;;;;;;;8.60;99.90;;;;;;5026843;28;20430;-78
2024/01/30 10:17:09;;;;;;;;;;;8.60;99.90;;;;;;5033186;28;19917;-78
2024/01/30 10:19:55;;;;;;;;;;;8.80;99.90;;;;;;5022814;28;19928;-78
2024/01/30 10:22:45;;;;;;;;;;;8.90;99.90;;;;;;5024304;28;19917;-78
2024/01/30 10:25:38;;;;;;;;;;;9.00;99.90;;;;;;5023105;28;20277;-78
2024/01/30 10:28:26;;;;;;;;;;;9.10;99.90;;;;;;5018970;28;20317;-79
2024/01/30 10:31:16;;;;;;;;;;;9.20;99.90;;;;;;5022587;28;19978;-78
2024/01/30 10:34:02;;;;;;;;;;;9.30;99.90;;;;;;5015431;28;19917;-78
2024/01/30 10:36:47;;;;;;;;;;;9.40;99.90;;;;;;5004934;28;19917;-78
2024/01/30 10:39:35;;;;;;;;;;;9.50;99.90;;;;;;5015975;28;19927;-78
2024/01/30 10:42:21;;;;;;;;;;;9.60;99.90;;;;;;5013644;28;19917;-78
2024/01/30 10:45:14;;;;;;;;;;;9.70;99.90;;;;;;5007965;28;19924;-78
2024/01/30 10:48:00;;;;;;;;;;;9.70;99.90;;;;;;5009334;28;19920;-78
2024/01/30 10:50:46;;;;;;;;;;;9.80;99.90;;;;;;5033344;28;19971;-78
2024/01/30 10:53:32;;;;;;;;;;;9.90;99.90;;;;;;5003147;28;19920;-78
2024/01/30 10:56:18;;;;;;;;;;;10.00;99.90;;;;;;5017113;28;19924;-78
2024/01/30 10:59:04;;;;;;;;;;;10.00;99.90;;;;;;5021172;28;20439;-78
2024/01/30 11:01:50;;;;;;;;;;;10.10;99.90;;;;;;5016464;28;19917;-78
2024/01/30 11:04:42;;;;;;;;;;;10.10;99.90;;;;;;5033844;28;19924;-78
2024/01/30 11:07:28;;;;;;;;;;;10.20;99.90;;;;;;5021304;28;19936;-76
2024/01/30 11:10:15;;;;;;;;;;;10.30;99.90;;;;;;5037971;28;19978;-76
2024/01/30 11:13:10;;;;;;;;;;;10.40;99.90;;;;;;5037867;28;19913;-76
2024/01/30 11:16:00;;;;;;;;;;;10.40;99.90;;;;;;5022677;28;19917;-76
2024/01/30 11:18:50;;;;;;;;;;;10.50;99.90;;;;;;5036206;28;19948;-76
2024/01/30 11:21:42;;;;;;;;;;;10.60;99.90;;;;;;5018680;28;19917;-76
2024/01/30 11:24:28;;;;;;;;;;;10.70;99.90;;;;;;5033618;28;19920;-76
2024/01/30 11:27:14;;;;;;;;;;;10.70;99.90;;;;;;5026289;28;20003;-76
2024/01/30 11:30:03;;;;;;;;;;;10.70;99.90;;;;;;5029062;28;19925;-76
2024/01/30 11:32:58;;;;;;;;;;;10.70;99.90;;;;;;5028688;28;19917;-77
2024/01/30 11:35:44;;;;;;;;;;;10.70;99.90;;;;;;5016372;28;19921;-76
2024/01/30 11:38:30;;;;;;;;;;;10.60;99.90;;;;;;5021565;28;19923;-76
2024/01/30 11:41:16;;;;;;;;;;;10.70;99.90;;;;;;5014587;28;20336;-76
2024/01/30 11:44:03;;;;;;;;;;;10.70;99.90;;;;;;5031849;28;19917;-76
2024/01/30 11:46:51;;;;;;;;;;;10.70;99.90;;;;;;5055136;28;20495;-78
2024/01/30 11:49:37;;;;;;;;;;;10.70;99.90;;;;;;5028408;28;20011;-75
2024/01/30 11:52:23;;;;;;;;;;;10.70;99.90;;;;;;5025578;28;19967;-76
2024/01/30 11:55:09;;;;;;;;;;;10.70;99.90;;;;;;5036074;28;19923;-76
2024/01/30 11:57:55;;;;;;;;;;;10.80;99.90;;;;;;5014802;28;19928;-77
2024/01/30 12:00:41;;;;;;;;;;;10.80;99.90;;;;;;5037528;28;19921;-76
2024/01/30 12:03:27;;;;;;;;;;;10.80;99.90;;;;;;5019823;28;19995;-77
2024/01/30 12:06:13;;;;;;;;;;;10.80;99.90;;;;;;5018091;28;19929;-77
2024/01/30 12:08:59;;;;;;;;;;;10.80;99.90;;;;;;5015951;28;20401;-76
2024/01/30 12:11:45;;;;;;;;;;;10.80;99.90;;;;;;5023285;28;20250;-76
2024/01/30 12:14:31;;;;;;;;;;;10.80;99.90;;;;;;5018489;28;20334;-76
2024/01/30 12:17:27;;;;;;;;;;;10.80;99.90;;;;;;5029457;28;19925;-76
2024/01/30 12:20:14;;;;;;;;;;;10.80;99.90;;;;;;5012766;28;19917;-76
2024/01/30 12:23:00;;;;;;;;;;;10.80;99.90;;;;;;5024292;28;19917;-76
2024/01/30 12:25:46;;;;;;;;;;;10.70;99.90;;;;;;5005411;28;19937;-75
2024/01/30 12:28:35;;;;;;;;;;;10.70;99.90;;;;;;5024593;28;20318;-75
2024/01/30 12:31:39;;;;;;;;;;;10.70;99.90;;;;;;5018203;28;19948;-75
2024/01/30 12:34:25;;;;;;;;;;;10.70;99.90;;;;;;5004377;28;19971;-76
2024/01/30 12:37:11;;;;;;;;;;;10.70;99.90;;;;;;5017599;28;20318;-76
2024/01/30 12:39:57;;;;;;;;;;;10.70;99.90;;;;;;5034516;28;19916;-75
2024/01/30 12:42:45;;;;;;;;;;;10.70;99.90;;;;;;5038951;28;20341;-76
2024/01/30 12:45:31;;;;;;;;;;;10.80;99.90;;;;;;5013474;28;20318;-76
2024/01/30 12:48:17;;;;;;;;;;;10.90;99.90;;;;;;5023517;28;20247;-76
2024/01/30 12:51:04;;;;;;;;;;;10.90;99.90;;;;;;5019075;28;19913;-76
2024/01/30 12:53:50;;;;;;;;;;;10.90;99.90;;;;;;5018451;28;19917;-76
2024/01/30 12:56:36;;;;;;;;;;;10.90;99.90;;;;;;5031388;28;20008;-76
2024/01/30 12:59:23;;;;;;;;;;;10.90;99.90;;;;;;5037378;28;19920;-75
2024/01/30 13:02:09;;;;;;;;;;;10.90;99.90;;;;;;5037731;28;19917;-76
2024/01/30 13:04:54;;;;;;;;;;;10.90;99.90;;;;;;5025278;28;19916;-76
2024/01/30 13:07:40;;;;;;;;;;;11.00;99.90;;;;;;5041120;28;20011;-76
2024/01/30 13:10:27;;;;;;;;;;;11.10;99.90;;;;;;5019382;28;19956;-75
2024/01/30 13:13:13;;;;;;;;;;;11.20;99.90;;;;;;5029340;28;20103;-76
2024/01/30 13:15:59;;;;;;;;;;;11.30;99.90;;;;;;5039055;28;19926;-76
2024/01/30 13:18:44;;;;;;;;;;;11.50;99.90;;;;;;5037989;28;19995;-76
2024/01/30 13:21:32;;;;;;;;;;;11.50;99.90;;;;;;5023745;28;20468;-76
2024/01/30 13:24:21;;;;;;;;;;;11.60;99.90;;;;;;5019379;28;20369;-76
2024/01/30 13:27:07;;;;;;;;;;;11.50;99.90;;;;;;5025731;28;19912;-76
2024/01/30 13:29:53;;;;;;;;;;;11.50;99.90;;;;;;5033229;28;19917;-76
2024/01/30 13:32:40;;;;;;;;;;;11.50;99.90;;;;;;5006806;28;19971;-75
2024/01/30 13:35:26;;;;;;;;;;;11.50;99.90;;;;;;5019180;28;19928;-77
2024/01/30 13:38:13;;;;;;;;;;;11.50;99.90;;;;;;5033561;28;20012;-76
2024/01/30 13:40:59;;;;;;;;;;;11.50;99.90;;;;;;5026884;28;19927;-76
2024/01/30 13:43:45;;;;;;;;;;;11.40;99.90;;;;;;5022132;28;19917;-76
2024/01/30 13:46:31;;;;;;;;;;;11.40;99.90;;;;;;5041279;28;19955;-77
2024/01/30 13:49:17;;;;;;;;;;;11.40;99.90;;;;;;5017882;28;19933;-76
2024/01/30 13:52:03;;;;;;;;;;;11.30;99.90;;;;;;5023260;28;19983;-76
2024/01/30 13:54:49;;;;;;;;;;;11.30;99.90;;;;;;5039274;28;20249;-76
2024/01/30 13:57:36;;;;;;;;;;;11.20;99.90;;;;;;5049320;28;20290;-76
2024/01/30 14:00:22;;;;;;;;;;;11.10;99.90;;;;;;5025233;28;19917;-76
2024/01/30 14:03:08;;;;;;;;;;;11.20;99.90;;;;;;5005314;28;20242;-75
2024/01/30 14:05:54;;;;;;;;;;;11.20;99.90;;;;;;5017740;28;19928;-76
2024/01/30 14:08:42;;;;;;;;;;;11.10;99.90;;;;;;5019918;28;19921;-77
2024/01/30 14:11:27;;;;;;;;;;;11.10;99.90;;;;;;5038121;28;20027;-76
2024/01/30 14:14:14;;;;;;;;;;;11.10;99.90;;;;;;5036352;28;19920;-76
2024/01/30 14:17:01;;;;;;;;;;;11.10;99.90;;;;;;5033932;28;19913;-76
2024/01/30 14:19:47;;;;;;;;;;;11.10;99.90;;;;;;5037257;28;19920;-76
2024/01/30 14:22:33;;;;;;;;;;;11.10;99.90;;;;;;5022635;28;19928;-76
2024/01/30 14:25:19;;;;;;;;;;;11.10;99.90;;;;;;5041547;28;19956;-76
2024/01/30 14:28:05;;;;;;;;;;;11.10;99.90;;;;;;5021879;28;19979;-75
2024/01/30 14:30:51;;;;;;;;;;;11.00;99.90;;;;;;5011083;28;19986;-76
2024/01/30 14:33:37;;;;;;;;;;;11.00;99.90;;;;;;5022587;28;19929;-76
2024/01/30 14:36:27;;;;;;;;;;;10.80;99.90;;;;;;5028898;28;19939;-75
2024/01/30 14:39:13;;;;;;;;;;;10.70;99.90;;;;;;5009577;28;20310;-75
2024/01/30 14:41:59;;;;;;;;;;;10.80;99.90;;;;;;5008892;28;19913;-76
2024/01/30 14:44:45;;;;;;;;;;;10.70;99.90;;;;;;5022363;28;19913;-75
2024/01/30 14:47:31;;;;;;;;;;;10.70;99.90;;;;;;5031562;28;19917;-75
2024/01/30 14:50:18;;;;;;;;;;;10.70;99.90;;;;;;5027930;28;20024;-75
2024/01/30 14:53:04;;;;;;;;;;;10.60;99.90;;;;;;5041510;28;19924;-75
2024/01/30 14:55:50;;;;;;;;;;;10.50;99.90;;;;;;5037510;28;19949;-75
2024/01/30 14:58:36;;;;;;;;;;;10.50;99.90;;;;;;5011705;28;19917;-76
2024/01/30 15:01:22;;;;;;;;;;;10.50;99.90;;;;;;5020659;28;20542;-76
2024/01/30 15:04:08;;;;;;;;;;;10.50;99.90;;;;;;5030967;28;19975;-76
2024/01/30 15:06:54;;;;;;;;;;;10.50;99.90;;;;;;5021008;28;19925;-75
2024/01/30 15:09:39;;;;;;;;;;;10.40;99.90;;;;;;5025619;28;20360;-75
2024/01/30 15:12:25;;;;;;;;;;;10.40;99.90;;;;;;5009624;28;19917;-75
2024/01/30 15:15:11;;;;;;;;;;;10.40;99.90;;;;;;5040474;28;20001;-75
2024/01/30 15:17:57;;;;;;;;;;;10.40;99.90;;;;;;5027145;28;20007;-75
2024/01/30 15:20:43;;;;;;;;;;;10.40;99.90;;;;;;5038873;28;19916;-75
2024/01/30 15:23:29;;;;;;;;;;;10.40;99.90;;;;;;5026307;28;20333;-75
2024/01/30 15:26:15;;;;;;;;;;;10.30;99.90;;;;;;5013260;28;20000;-76
2024/01/30 15:29:03;;;;;;;;;;;10.30;99.90;;;;;;5022036;28;20022;-76
2024/01/30 15:31:49;;;;;;;;;;;10.30;99.90;;;;;;5019988;28;19917;-74
2024/01/30 15:34:34;;;;;;;;;;;10.30;99.90;;;;;;5038342;28;19923;-75
2024/01/30 15:37:20;;;;;;;;;;;10.30;99.90;;;;;;5031149;28;19917;-75
2024/01/30 15:40:08;;;;;;;;;;;10.30;99.90;;;;;;5039908;28;19999;-74
2024/01/30 15:42:54;;;;;;;;;;;10.30;99.90;;;;;;5020772;28;19940;-74
2024/01/30 15:45:40;;;;;;;;;;;10.30;99.90;;;;;;5020493;28;19924;-74
2024/01/30 15:48:26;;;;;;;;;;;10.30;99.90;;;;;;5039826;28;19920;-74
2024/01/30 15:51:12;;;;;;;;;;;10.30;99.90;;;;;;5025608;28;20437;-74
2024/01/30 15:53:58;;;;;;;;;;;10.30;99.90;;;;;;5025603;28;19926;-75
2024/01/30 15:56:45;;;;;;;;;;;10.30;99.90;;;;;;5024408;28;19916;-75
2024/01/30 15:59:31;;;;;;;;;;;10.30;99.90;;;;;;5027918;28;19917;-75
2024/01/30 16:02:18;;;;;;;;;;;10.30;99.90;;;;;;5035716;28;19974;-75
2024/01/30 16:05:04;;;;;;;;;;;10.30;99.90;;;;;;5006440;28;19983;-75
2024/01/30 16:07:51;;;;;;;;;;;10.30;99.90;;;;;;5010342;28;19925;-76
2024/01/30 16:10:37;;;;;;;;;;;10.30;99.90;;;;;;5035901;28;19920;-75
2024/01/30 16:13:23;;;;;;;;;;;10.30;99.90;;;;;;5019551;28;20013;-75
2024/01/30 16:16:11;;;;;;;;;;;10.30;99.90;;;;;;5038286;28;20388;-80
2024/01/30 16:18:57;;;;;;;;;;;10.30;99.90;;;;;;5028225;28;19944;-80